Time;durP1;ratioP1;P1;durP2;ratioP2;P2;SDS_P1;SDS_P2;PMS_P1;PMS_P2;Temp;Humidity;BMP_temperature;BMP_pressure;BME280_temperature;BME280_humidity;BME280_pressure;Samples;Min_cycle;Max_cycle;Signal;HPM_P1;HPM_P2
2021/03/27 00:01:48;;;;;;;14.20;10.35;;;10.00;99.90;;;;;;4938149;29;20307;-65
2021/03/27 00:04:20;;;;;;;12.73;10.70;;;10.00;99.90;;;;;;4937249;29;20227;-67
2021/03/27 00:06:50;;;;;;;11.68;10.45;;;10.00;99.90;;;;;;4939200;29;20231;-68
2021/03/27 00:09:34;;;;;;;13.93;8.88;;;10.10;99.90;;;;;;4936591;29;20210;-67
2021/03/27 00:12:06;;;;;;;14.35;10.38;;;10.20;99.90;;;;;;4937221;29;20266;-69
2021/03/27 00:14:44;;;;;;;17.95;9.77;;;10.30;99.90;;;;;;4937673;29;20207;-68
2021/03/27 00:17:14;;;;;;;15.55;10.48;;;10.40;99.90;;;;;;4939670;29;20296;-68
2021/03/27 00:19:47;;;;;;;10.65;9.55;;;10.40;99.90;;;;;;4936685;29;20208;-68
2021/03/27 00:22:20;;;;;;;11.00;9.90;;;10.40;99.90;;;;;;4937649;29;20207;-71
2021/03/27 00:25:11;;;;;;;12.32;9.88;;;10.40;99.90;;;;;;4936405;29;20207;-69
2021/03/27 00:27:43;;;;;;;12.50;10.00;;;10.40;99.90;;;;;;4931809;29;20207;-66
2021/03/27 00:30:14;;;;;;;11.15;9.07;;;10.50;99.90;;;;;;4932115;29;20207;-68
2021/03/27 00:32:44;;;;;;;11.60;9.45;;;10.40;99.90;;;;;;4936792;29;20207;-67
2021/03/27 00:35:15;;;;;;;12.90;9.73;;;10.40;99.90;;;;;;4936383;29;20220;-68
2021/03/27 00:37:44;;;;;;;10.35;8.52;;;10.40;99.90;;;;;;4936756;29;20207;-68
2021/03/27 00:40:16;;;;;;;13.75;7.75;;;10.40;99.90;;;;;;4932340;29;20251;-68
2021/03/27 00:42:46;;;;;;;16.70;9.65;;;10.40;99.90;;;;;;4936578;29;20238;-69
2021/03/27 00:45:16;;;;;;;10.95;7.45;;;10.30;99.90;;;;;;4936574;29;20593;-68
2021/03/27 00:47:48;;;;;;;10.90;8.77;;;10.40;99.90;;;;;;4936657;29;20207;-67
2021/03/27 00:50:22;;;;;;;12.07;9.40;;;10.40;99.90;;;;;;4935544;29;20211;-69
2021/03/27 00:52:52;;;;;;;12.10;8.65;;;10.50;99.90;;;;;;4936630;29;20206;-66
2021/03/27 00:55:22;;;;;;;14.07;9.10;;;10.50;99.90;;;;;;4937972;29;20234;-68
2021/03/27 00:57:57;;;;;;;10.85;8.10;;;10.40;99.90;;;;;;4938144;29;20339;-67
2021/03/27 01:00:29;;;;;;;10.48;8.55;;;10.40;99.90;;;;;;4934822;29;20203;-70
2021/03/27 01:03:02;;;;;;;9.88;6.63;;;10.40;99.90;;;;;;4936533;29;20678;-68
2021/03/27 01:05:30;;;;;;;10.25;7.63;;;10.40;99.90;;;;;;4935591;29;20698;-66
2021/03/27 01:07:59;;;;;;;8.13;7.28;;;10.30;99.90;;;;;;4930970;29;20223;-69
2021/03/27 01:10:32;;;;;;;14.02;6.97;;;10.40;99.90;;;;;;4935509;29;20204;-70
2021/03/27 01:13:01;;;;;;;8.50;6.95;;;10.40;99.90;;;;;;4934315;29;20246;-65
2021/03/27 01:15:31;;;;;;;9.02;7.90;;;10.50;99.90;;;;;;4930650;29;20223;-67
2021/03/27 01:18:03;;;;;;;10.35;7.13;;;10.60;99.90;;;;;;4935851;29;20250;-70
2021/03/27 01:20:34;;;;;;;9.10;7.90;;;10.60;99.90;;;;;;4935703;29;20222;-70
2021/03/27 01:23:02;;;;;;;8.43;7.10;;;10.70;99.90;;;;;;4933954;29;20220;-67
2021/03/27 01:25:32;;;;;;;11.18;7.55;;;10.80;99.90;;;;;;4935146;29;20223;-67
2021/03/27 01:28:05;;;;;;;9.75;7.85;;;10.80;99.90;;;;;;4936180;29;20233;-68
2021/03/27 01:30:38;;;;;;;19.38;7.63;;;10.90;99.90;;;;;;4934849;29;20290;-67
2021/03/27 01:33:18;;;;;;;8.90;7.28;;;11.00;99.90;;;;;;4935949;29;20565;-65
2021/03/27 01:35:48;;;;;;;8.07;7.28;;;11.00;99.90;;;;;;4931016;29;20234;-67
2021/03/27 01:38:19;;;;;;;10.60;8.68;;;11.00;99.90;;;;;;4935968;29;20287;-70
2021/03/27 01:41:07;;;;;;;8.18;6.25;;;11.00;99.90;;;;;;4935393;29;20807;-67
2021/03/27 01:43:38;;;;;;;8.43;6.90;;;11.00;99.90;;;;;;4934767;29;20321;-65
2021/03/27 01:46:39;;;;;;;8.98;6.68;;;11.10;99.90;;;;;;4935637;29;20234;-67
2021/03/27 01:49:17;;;;;;;10.63;7.13;;;11.00;99.90;;;;;;4932332;29;20624;-65
2021/03/27 01:52:09;;;;;;;8.80;7.32;;;10.90;99.90;;;;;;4930949;29;20200;-64
2021/03/27 01:54:41;;;;;;;7.97;7.18;;;11.00;99.90;;;;;;4931714;29;20602;-66
2021/03/27 01:57:16;;;;;;;7.60;6.53;;;11.00;99.90;;;;;;4935494;29;20547;-68
2021/03/27 01:59:47;;;;;;;13.52;8.23;;;11.00;99.90;;;;;;4935104;29;20227;-65
2021/03/27 02:02:20;;;;;;;7.90;7.10;;;10.90;99.90;;;;;;4935350;29;20279;-68
2021/03/27 02:04:52;;;;;;;8.20;6.90;;;11.00;99.90;;;;;;4935851;29;20226;-67
2021/03/27 02:07:24;;;;;;;7.50;6.35;;;10.90;99.90;;;;;;4935326;29;20255;-67
2021/03/27 02:10:05;;;;;;;7.82;6.82;;;11.00;99.90;;;;;;4934695;29;20214;-65
2021/03/27 02:12:48;;;;;;;8.95;6.85;;;11.00;99.90;;;;;;4936766;29;20211;-69
2021/03/27 02:15:18;;;;;;;8.90;6.88;;;11.10;99.90;;;;;;4936804;29;20655;-68
2021/03/27 02:17:52;;;;;;;10.68;7.75;;;11.10;99.90;;;;;;4931283;29;20215;-68
2021/03/27 02:20:53;;;;;;;11.45;9.48;;;11.10;99.90;;;;;;4933236;29;20200;-67
2021/03/27 02:23:27;;;;;;;13.40;12.00;;;11.20;99.90;;;;;;4908194;29;20775;-66
2021/03/27 02:26:23;;;;;;;12.85;8.90;;;11.10;99.90;;;;;;4935041;29;20268;-66
2021/03/27 02:29:32;;;;;;;10.48;8.90;;;10.90;99.90;;;;;;4933959;29;20694;-65
2021/03/27 02:32:04;;;;;;;7.18;6.47;;;10.90;99.90;;;;;;4932923;29;20215;-64
2021/03/27 02:34:39;;;;;;;5.88;5.00;;;10.60;99.90;;;;;;4934015;29;20200;-67
2021/03/27 02:37:10;;;;;;;5.30;4.05;;;10.40;99.90;;;;;;4931720;29;20238;-66
2021/03/27 02:39:44;;;;;;;6.40;4.85;;;10.20;99.90;;;;;;4934261;29;20218;-69
2021/03/27 02:42:28;;;;;;;3.92;3.53;;;9.90;99.90;;;;;;4935072;29;20629;-67
2021/03/27 02:45:03;;;;;;;7.20;5.22;;;9.70;99.90;;;;;;4934767;29;20203;-67
2021/03/27 02:47:52;;;;;;;4.18;3.78;;;9.50;99.90;;;;;;4927281;29;20199;-64
2021/03/27 02:50:32;;;;;;;3.58;3.28;;;9.30;99.90;;;;;;4927461;29;20210;-69
2021/03/27 02:53:08;;;;;;;3.75;3.45;;;9.20;99.90;;;;;;4934012;29;20343;-67
2021/03/27 02:55:40;;;;;;;3.60;3.25;;;9.00;99.90;;;;;;4934283;29;20227;-68
2021/03/27 02:58:19;;;;;;;3.72;3.42;;;8.90;99.90;;;;;;4934221;29;20236;-65
2021/03/27 03:01:00;;;;;;;4.63;2.90;;;8.80;99.90;;;;;;4930281;29;20349;-66
2021/03/27 03:03:35;;;;;;;3.65;3.03;;;8.60;99.90;;;;;;4931123;29;20227;-67
2021/03/27 03:06:15;;;;;;;3.17;2.88;;;8.60;99.90;;;;;;4930542;29;20237;-68
2021/03/27 03:08:47;;;;;;;4.00;3.20;;;8.60;99.90;;;;;;4932432;29;20206;-68
2021/03/27 03:11:23;;;;;;;2.45;2.25;;;8.50;99.90;;;;;;4934756;29;20294;-66
2021/03/27 03:13:57;;;;;;;3.70;2.08;;;8.60;99.90;;;;;;4933937;29;20206;-67
2021/03/27 03:16:30;;;;;;;2.10;1.95;;;8.60;99.90;;;;;;4934344;29;20770;-69
2021/03/27 03:19:03;;;;;;;2.10;1.90;;;8.50;99.90;;;;;;4931737;29;20249;-66
2021/03/27 03:21:36;;;;;;;2.30;1.90;;;8.30;99.90;;;;;;4929802;29;20655;-67
2021/03/27 03:24:15;;;;;;;2.45;1.90;;;8.00;99.90;;;;;;4922339;29;20652;-66
2021/03/27 03:27:00;;;;;;;2.55;2.08;;;7.90;99.90;;;;;;4934135;29;20233;-67
2021/03/27 03:29:41;;;;;;;2.63;2.13;;;7.80;99.90;;;;;;4932407;29;20210;-68
2021/03/27 03:32:19;;;;;;;3.30;3.00;;;7.60;99.90;;;;;;4933474;29;20216;-66
2021/03/27 03:34:59;;;;;;;3.55;3.10;;;7.50;99.90;;;;;;4933878;29;20238;-68
2021/03/27 03:37:48;;;;;;;5.18;3.45;;;7.50;99.90;;;;;;4934621;29;20197;-68
2021/03/27 03:40:20;;;;;;;4.82;2.78;;;7.40;99.90;;;;;;4933886;29;20225;-66
2021/03/27 03:43:02;;;;;;;3.13;2.83;;;7.40;99.90;;;;;;4934366;29;20231;-68
2021/03/27 03:45:50;;;;;;;4.43;3.97;;;7.30;99.90;;;;;;4926856;29;20675;-66
2021/03/27 03:48:41;;;;;;;3.83;3.30;;;7.30;99.90;;;;;;4934400;29;20214;-68
2021/03/27 03:51:18;;;;;;;4.10;3.70;;;7.30;99.90;;;;;;4936433;29;20207;-69
2021/03/27 03:53:56;;;;;;;4.90;4.03;;;7.20;99.90;;;;;;4931868;29;20263;-68
2021/03/27 03:56:32;;;;;;;6.00;4.00;;;7.20;99.90;;;;;;4932722;29;20294;-68
2021/03/27 03:59:21;;;;;;;4.57;3.85;;;7.20;99.90;;;;;;4936441;29;20206;-68
2021/03/27 04:01:56;;;;;;;4.30;3.90;;;7.30;99.90;;;;;;4935518;29;20295;-69
2021/03/27 04:04:27;;;;;;;4.85;4.30;;;7.20;99.90;;;;;;4935841;29;20278;-66
2021/03/27 04:06:58;;;;;;;5.72;4.22;;;7.20;99.90;;;;;;4935730;29;20241;-68
2021/03/27 04:09:30;;;;;;;12.80;4.70;;;7.20;99.90;;;;;;4929806;29;20206;-67
2021/03/27 04:12:11;;;;;;;5.30;4.80;;;7.10;99.90;;;;;;4935775;29;20212;-67
2021/03/27 04:15:17;;;;;;;7.72;5.90;;;7.10;99.90;;;;;;4936136;29;20202;-68
2021/03/27 04:17:58;;;;;;;6.32;4.65;;;7.00;99.90;;;;;;4874963;29;20331;-67
2021/03/27 04:20:42;;;;;;;8.02;5.65;;;7.10;99.90;;;;;;4927160;29;21369;-68
2021/03/27 04:23:17;;;;;;;6.97;6.28;;;7.10;99.90;;;;;;4937292;29;20223;-68
2021/03/27 04:25:51;;;;;;;7.90;7.15;;;7.10;99.90;;;;;;4937086;29;20245;-67
2021/03/27 04:28:22;;;;;;;12.07;9.38;;;7.00;99.90;;;;;;4936800;29;20210;-67
2021/03/27 04:30:56;;;;;;;9.05;8.15;;;7.00;99.90;;;;;;4938171;29;20236;-65
2021/03/27 04:33:38;;;;;;;11.10;9.90;;;7.10;99.90;;;;;;4929517;29;20626;-65
2021/03/27 04:36:10;;;;;;;10.65;9.20;;;7.10;99.90;;;;;;4935319;29;20224;-66
2021/03/27 04:38:44;;;;;;;12.95;8.77;;;7.10;99.90;;;;;;4936716;29;20213;-65
2021/03/27 04:41:34;;;;;;;11.65;10.40;;;7.10;99.90;;;;;;4936518;29;20217;-65
2021/03/27 04:44:07;;;;;;;14.43;10.52;;;7.10;99.90;;;;;;4935102;29;20235;-73
2021/03/27 04:46:44;;;;;;;12.52;10.23;;;7.10;99.90;;;;;;4931140;29;20232;-66
2021/03/27 04:49:20;;;;;;;11.35;10.13;;;7.10;99.90;;;;;;4934938;29;20312;-68
2021/03/27 04:51:55;;;;;;;9.93;8.27;;;7.10;99.90;;;;;;4935968;29;20215;-68
2021/03/27 04:54:52;;;;;;;9.23;7.47;;;7.10;99.90;;;;;;4933340;29;20204;-68
2021/03/27 04:57:30;;;;;;;9.38;7.53;;;7.10;99.90;;;;;;4927332;29;20654;-66
2021/03/27 05:00:25;;;;;;;7.60;6.80;;;7.10;99.90;;;;;;4935891;29;20208;-65
2021/03/27 05:03:04;;;;;;;8.88;7.22;;;7.10;99.90;;;;;;4930996;29;20208;-68
2021/03/27 05:05:42;;;;;;;10.15;8.50;;;7.10;99.90;;;;;;4935991;29;20283;-67
2021/03/27 05:08:14;;;;;;;7.80;7.00;;;7.20;99.90;;;;;;4934592;29;20208;-67
2021/03/27 05:10:46;;;;;;;11.15;7.40;;;7.10;99.90;;;;;;4930719;29;20208;-66
2021/03/27 05:13:25;;;;;;;11.05;8.65;;;7.10;99.90;;;;;;4935944;29;20950;-68
2021/03/27 05:15:57;;;;;;;8.52;7.63;;;7.10;99.90;;;;;;4931053;29;20232;-68
2021/03/27 05:18:46;;;;;;;8.50;7.70;;;7.10;99.90;;;;;;4929708;29;20227;-66
2021/03/27 05:21:52;;;;;;;9.48;7.32;;;7.10;99.90;;;;;;4934561;29;20210;-67
2021/03/27 05:24:27;;;;;;;15.93;8.73;;;7.10;99.90;;;;;;4930925;29;20223;-67
2021/03/27 05:27:14;;;;;;;10.10;8.38;;;7.10;99.90;;;;;;4936081;28;20278;-70
2021/03/27 05:29:54;;;;;;;10.00;8.43;;;7.10;99.90;;;;;;4930457;29;20204;-67
2021/03/27 05:32:36;;;;;;;9.70;8.50;;;7.10;99.90;;;;;;4933955;29;20207;-66
2021/03/27 05:35:13;;;;;;;13.27;9.52;;;7.10;99.90;;;;;;4935682;29;20251;-69
2021/03/27 05:37:53;;;;;;;13.68;10.73;;;7.10;99.90;;;;;;4934236;29;20262;-66
2021/03/27 05:41:16;;;;;;;11.90;10.13;;;7.10;99.90;;;;;;4930190;29;20208;-68
2021/03/27 05:44:08;;;;;;;12.60;10.02;;;7.10;99.90;;;;;;4928199;29;20352;-66
2021/03/27 05:47:10;;;;;;;12.23;9.82;;;7.10;99.90;;;;;;4929609;29;20241;-64
2021/03/27 05:50:09;;;;;;;12.48;11.13;;;7.10;99.90;;;;;;4868113;29;20212;-66
2021/03/27 05:53:13;;;;;;;13.80;10.55;;;7.10;99.90;;;;;;4928502;29;20200;-65
2021/03/27 05:56:01;;;;;;;15.50;11.20;;;7.10;99.90;;;;;;4925458;29;20238;-66
2021/03/27 05:58:50;;;;;;;13.40;10.88;;;7.10;99.90;;;;;;4928225;29;20699;-66
2021/03/27 06:01:37;;;;;;;13.20;11.82;;;7.10;99.90;;;;;;4935210;29;20209;-69
2021/03/27 06:04:30;;;;;;;12.45;10.40;;;7.10;99.90;;;;;;4931982;29;20590;-66
2021/03/27 06:07:37;;;;;;;14.13;12.30;;;7.20;99.90;;;;;;4933586;29;20705;-70
2021/03/27 06:10:34;;;;;;;13.85;11.70;;;7.20;99.90;;;;;;4934169;29;20208;-64
2021/03/27 06:13:38;;;;;;;19.38;11.57;;;7.20;99.90;;;;;;4934662;29;20224;-64
2021/03/27 06:16:19;;;;;;;15.20;11.30;;;7.20;99.90;;;;;;4910619;29;20242;-69
2021/03/27 06:19:18;;;;;;;17.92;11.75;;;7.20;99.90;;;;;;4936306;29;20227;-66
2021/03/27 06:22:06;;;;;;;14.95;10.82;;;7.20;99.90;;;;;;4916976;29;20660;-65
2021/03/27 06:24:58;;;;;;;12.80;11.20;;;7.20;99.90;;;;;;4928562;29;20574;-66
2021/03/27 06:28:16;;;;;;;15.38;10.02;;;7.30;99.90;;;;;;4932992;29;20291;-69
2021/03/27 06:30:57;;;;;;;14.80;9.80;;;7.50;99.90;;;;;;4934535;29;20657;-64
2021/03/27 06:33:59;;;;;;;20.50;11.00;;;7.40;99.90;;;;;;4933936;29;20219;-66
2021/03/27 06:36:58;;;;;;;13.15;10.73;;;7.50;99.90;;;;;;4933759;29;20230;-66
2021/03/27 06:39:46;;;;;;;17.52;9.75;;;7.60;99.90;;;;;;4932246;29;20660;-67
2021/03/27 06:42:43;;;;;;;13.95;9.57;;;7.60;99.90;;;;;;4934461;29;20262;-66
2021/03/27 06:45:45;;;;;;;14.57;9.15;;;7.60;99.90;;;;;;4932905;29;20655;-65
2021/03/27 06:48:59;;;;;;;16.15;9.30;;;7.50;99.90;;;;;;4888747;29;20209;-66
2021/03/27 06:52:04;;;;;;;12.30;8.70;;;7.60;99.90;;;;;;4880339;29;20657;-65
2021/03/27 06:54:51;;;;;;;11.77;7.95;;;7.70;99.90;;;;;;4932191;29;20201;-65
2021/03/27 06:57:36;;;;;;;10.13;7.43;;;8.00;99.90;;;;;;4927909;29;20207;-65
2021/03/27 07:00:39;;;;;;;10.38;7.55;;;8.20;99.90;;;;;;4933183;29;20680;-67
2021/03/27 07:03:42;;;;;;;13.40;8.80;;;8.40;99.90;;;;;;4933765;29;20227;-65
2021/03/27 07:06:51;;;;;;;7.65;6.63;;;8.40;99.90;;;;;;4935278;29;20233;-68
2021/03/27 07:09:58;;;;;;;10.35;6.57;;;8.60;99.90;;;;;;4934868;29;20285;-70
2021/03/27 07:13:05;;;;;;;10.20;6.82;;;8.60;99.90;;;;;;4925392;29;20657;-65
2021/03/27 07:15:53;;;;;;;9.27;7.03;;;8.30;99.90;;;;;;4934066;29;20240;-65
2021/03/27 07:18:43;;;;;;;8.98;7.43;;;8.20;99.90;;;;;;4932001;29;20634;-67
2021/03/27 07:21:48;;;;;;;10.82;6.60;;;8.00;99.90;;;;;;4934222;29;20206;-67
2021/03/27 07:24:52;;;;;;;16.73;7.65;;;8.10;99.90;;;;;;4935518;29;20237;-67
2021/03/27 07:27:49;;;;;;;10.25;6.72;;;8.30;99.90;;;;;;4931397;29;20207;-67
2021/03/27 07:30:51;;;;;;;15.98;9.27;;;8.00;99.90;;;;;;4935629;29;20653;-66
2021/03/27 07:33:31;;;;;;;13.63;9.88;;;8.00;99.90;;;;;;4930660;29;20731;-67
2021/03/27 07:36:43;;;;;;;9.63;8.50;;;8.10;99.90;;;;;;4935741;29;20278;-67
2021/03/27 07:39:42;;;;;;;17.20;8.85;;;8.30;99.90;;;;;;4937054;29;20564;-64
2021/03/27 07:42:33;;;;;;;13.95;8.98;;;8.50;99.90;;;;;;4896920;29;20209;-66
2021/03/27 07:45:11;;;;;;;12.27;9.95;;;8.60;99.90;;;;;;4935382;29;20234;-67
2021/03/27 07:48:01;;;;;;;18.10;9.45;;;8.50;99.90;;;;;;4937195;29;20215;-65
2021/03/27 07:50:54;;;;;;;12.68;9.23;;;8.50;99.90;;;;;;4936131;29;20210;-64
2021/03/27 07:53:55;;;;;;;12.88;8.85;;;8.50;99.90;;;;;;4937864;29;20212;-64
2021/03/27 07:56:54;;;;;;;16.05;9.18;;;8.70;99.90;;;;;;4933699;29;20226;-65
2021/03/27 07:59:45;;;;;;;12.18;9.25;;;9.00;99.90;;;;;;4936778;29;20310;-66
2021/03/27 08:02:38;;;;;;;12.80;9.40;;;8.70;99.90;;;;;;4936944;29;20651;-65
2021/03/27 08:05:42;;;;;;;11.75;9.23;;;8.50;99.90;;;;;;4935846;29;20234;-67
2021/03/27 08:08:37;;;;;;;11.88;7.80;;;8.30;99.90;;;;;;4898185;29;20353;-66
2021/03/27 08:11:16;;;;;;;7.82;6.07;;;8.20;99.90;;;;;;4921257;29;20217;-66
2021/03/27 08:14:07;;;;;;;12.05;8.00;;;8.70;99.90;;;;;;4937430;29;20204;-67
2021/03/27 08:16:52;;;;;;;14.75;7.28;;;9.20;99.90;;;;;;4931772;29;20586;-68
2021/03/27 08:19:46;;;;;;;9.48;7.32;;;9.90;99.90;;;;;;4939257;29;20349;-66
2021/03/27 08:22:30;;;;;;;9.93;8.45;;;10.20;99.90;;;;;;4937422;29;20199;-67
2021/03/27 08:25:04;;;;;;;16.02;9.35;;;9.60;99.90;;;;;;4938482;29;20223;-69
2021/03/27 08:27:50;;;;;;;9.50;8.13;;;9.40;99.90;;;;;;4939860;29;20208;-65
2021/03/27 08:30:43;;;;;;;16.10;9.55;;;9.20;99.90;;;;;;4937902;29;20235;-67
2021/03/27 08:33:34;;;;;;;12.13;8.45;;;8.70;99.90;;;;;;4936576;29;20204;-74
2021/03/27 08:36:40;;;;;;;11.30;8.27;;;8.70;99.90;;;;;;4935403;29;20230;-69
2021/03/27 08:39:39;;;;;;;11.85;7.50;;;8.60;99.90;;;;;;4908705;29;20249;-65
2021/03/27 08:42:23;;;;;;;7.65;6.47;;;8.50;99.90;;;;;;4901255;29;20303;-65
2021/03/27 08:45:12;;;;;;;12.45;7.65;;;8.40;99.90;;;;;;4936993;29;20234;-68
2021/03/27 08:48:20;;;;;;;12.68;6.95;;;8.50;99.90;;;;;;4928154;29;20289;-71
2021/03/27 08:51:22;;;;;;;20.55;8.00;;;8.70;99.90;;;;;;4919340;29;20545;-64
2021/03/27 08:54:37;;;;;;;8.98;7.07;;;9.00;99.90;;;;;;4936959;29;20203;-67
2021/03/27 08:57:28;;;;;;;7.00;5.13;;;10.30;99.90;;;;;;4934693;29;20289;-67
2021/03/27 09:00:37;;;;;;;12.05;5.03;;;12.00;99.90;;;;;;4934995;29;20215;-67
2021/03/27 09:03:52;;;;;;;8.02;5.32;;;13.10;98.30;;;;;;4934181;29;20330;-69
2021/03/27 09:06:30;;;;;;;10.98;5.07;;;13.70;95.80;;;;;;4913851;29;20227;-67
2021/03/27 09:09:18;;;;;;;10.15;5.28;;;13.40;95.50;;;;;;4923460;29;20209;-67
2021/03/27 09:12:05;;;;;;;11.95;5.18;;;12.60;96.50;;;;;;4928809;29;20303;-66
2021/03/27 09:15:15;;;;;;;14.20;4.85;;;11.60;97.80;;;;;;4935057;29;20254;-65
2021/03/27 09:18:18;;;;;;;6.60;4.28;;;10.60;97.90;;;;;;4935362;29;20211;-67
2021/03/27 09:21:12;;;;;;;5.97;4.35;;;11.00;98.30;;;;;;4934394;29;20207;-66
2021/03/27 09:23:50;;;;;;;6.78;4.00;;;10.50;98.00;;;;;;4936666;29;20211;-64
2021/03/27 09:26:56;;;;;;;10.68;3.45;;;10.50;98.60;;;;;;4935315;29;20302;-66
2021/03/27 09:29:40;;;;;;;7.72;3.53;;;10.50;98.90;;;;;;4930347;29;20262;-69
2021/03/27 09:32:21;;;;;;;7.07;3.70;;;10.30;99.10;;;;;;4935738;29;20300;-69
2021/03/27 09:35:11;;;;;;;10.68;4.18;;;10.40;99.80;;;;;;4934196;29;20208;-66
2021/03/27 09:38:05;;;;;;;9.90;3.80;;;11.20;99.40;;;;;;4935844;29;20256;-69
2021/03/27 09:40:39;;;;;;;9.95;3.33;;;12.30;96.40;;;;;;4927709;29;20210;-69
2021/03/27 09:43:39;;;;;;;12.85;2.97;;;12.50;94.60;;;;;;4923589;29;20634;-68
2021/03/27 09:46:15;;;;;;;6.30;2.33;;;11.70;95.90;;;;;;4904480;29;20298;-67
2021/03/27 09:48:54;;;;;;;12.48;3.10;;;10.70;98.00;;;;;;4925227;29;20335;-69
2021/03/27 09:51:36;;;;;;;8.65;3.03;;;9.70;99.90;;;;;;4928859;29;20295;-68
2021/03/27 09:54:13;;;;;;;7.25;2.80;;;9.60;99.90;;;;;;4924743;29;20324;-69
2021/03/27 09:56:49;;;;;;;6.90;2.85;;;9.50;99.90;;;;;;4933250;29;20227;-69
2021/03/27 09:59:33;;;;;;;8.25;3.20;;;9.60;99.90;;;;;;4934880;29;20211;-69
2021/03/27 10:02:11;;;;;;;10.07;3.08;;;9.50;99.90;;;;;;4933085;29;20207;-68
2021/03/27 10:04:54;;;;;;;4.68;2.47;;;9.40;99.90;;;;;;4934521;29;20297;-67
2021/03/27 10:07:41;;;;;;;5.93;2.92;;;9.30;99.90;;;;;;4933339;29;20200;-68
2021/03/27 10:10:44;;;;;;;10.73;2.70;;;9.50;99.90;;;;;;4929682;29;20207;-68
2021/03/27 10:13:37;;;;;;;9.88;2.42;;;9.40;99.90;;;;;;4928984;29;20266;-69
2021/03/27 10:16:08;;;;;;;14.02;4.32;;;9.60;99.90;;;;;;4928500;29;20278;-69
2021/03/27 10:18:40;;;;;;;8.93;3.30;;;9.70;99.90;;;;;;4929020;29;20307;-68
2021/03/27 10:21:27;;;;;;;7.20;3.55;;;9.70;99.90;;;;;;4933837;29;20311;-68
2021/03/27 10:23:59;;;;;;;11.10;3.80;;;10.00;99.90;;;;;;4931151;29;20228;-67
2021/03/27 10:26:33;;;;;;;7.13;3.00;;;10.00;99.90;;;;;;4927949;29;20580;-67
2021/03/27 10:29:12;;;;;;;11.55;4.20;;;9.80;99.90;;;;;;4934163;29;20206;-67
2021/03/27 10:31:44;;;;;;;7.80;3.25;;;9.50;99.90;;;;;;4936129;29;20210;-66
2021/03/27 10:34:33;;;;;;;11.57;3.13;;;8.80;99.90;;;;;;4935384;29;20198;-68
2021/03/27 10:37:05;;;;;;;8.43;4.13;;;8.40;99.90;;;;;;4932176;29;20229;-69
2021/03/27 10:39:53;;;;;;;9.95;5.18;;;8.50;99.90;;;;;;4927422;29;20295;-68
2021/03/27 10:42:40;;;;;;;12.68;4.18;;;8.60;99.90;;;;;;4934800;29;20214;-67
2021/03/27 10:45:25;;;;;;;10.00;3.55;;;9.20;99.90;;;;;;4927935;29;20237;-67
2021/03/27 10:48:32;;;;;;;7.78;3.00;;;9.80;99.90;;;;;;4936009;29;20200;-69
2021/03/27 10:51:13;;;;;;;10.25;2.92;;;10.60;99.90;;;;;;4919856;29;20233;-68
2021/03/27 10:53:56;;;;;;;10.30;2.90;;;11.20;99.90;;;;;;4932158;29;20665;-68
2021/03/27 10:56:53;;;;;;;13.32;2.60;;;11.30;99.90;;;;;;4932006;29;20223;-69
2021/03/27 10:59:34;;;;;;;8.63;2.42;;;11.40;99.90;;;;;;4936885;28;20220;-68
2021/03/27 11:02:37;;;;;;;10.65;3.13;;;11.30;99.90;;;;;;4929859;29;20303;-68
2021/03/27 11:05:24;;;;;;;14.73;3.30;;;11.40;99.90;;;;;;4935021;29;20235;-68
2021/03/27 11:08:23;;;;;;;12.07;2.65;;;11.40;99.80;;;;;;4937897;29;20206;-68
2021/03/27 11:11:09;;;;;;;15.63;3.65;;;11.30;99.70;;;;;;4933968;29;20211;-68
2021/03/27 11:14:09;;;;;;;7.32;2.92;;;10.60;99.90;;;;;;4936899;29;20214;-69
2021/03/27 11:17:11;;;;;;;5.60;2.38;;;10.30;99.90;;;;;;4936674;29;20220;-67
2021/03/27 11:20:15;;;;;;;11.65;4.10;;;9.30;99.10;;;;;;4936643;29;20207;-67
2021/03/27 11:23:06;;;;;;;9.55;3.22;;;9.00;99.90;;;;;;4930168;29;20649;-67
2021/03/27 11:26:02;;;;;;;6.85;2.13;;;8.30;99.90;;;;;;4920932;29;20242;-67
2021/03/27 11:28:33;;;;;;;8.57;2.30;;;7.80;99.90;;;;;;4907087;29;20300;-65
2021/03/27 11:31:30;;;;;;;6.65;3.38;;;7.70;99.90;;;;;;4930583;29;20200;-67
2021/03/27 11:34:10;;;;;;;9.15;2.80;;;7.70;99.90;;;;;;4935278;29;20240;-67
2021/03/27 11:36:43;;;;;;;12.80;3.17;;;7.90;99.90;;;;;;4932374;29;20256;-69
2021/03/27 11:39:24;;;;;;;7.63;2.90;;;8.30;99.90;;;;;;4934294;29;20210;-69
2021/03/27 11:42:01;;;;;;;5.57;2.78;;;8.60;99.90;;;;;;4937762;29;20210;-68
2021/03/27 11:44:42;;;;;;;9.50;3.15;;;8.80;99.90;;;;;;4931270;29;20942;-68
2021/03/27 11:47:32;;;;;;;8.93;2.50;;;9.00;99.90;;;;;;4930648;29;20207;-68
2021/03/27 11:50:13;;;;;;;12.55;2.50;;;8.60;99.90;;;;;;4929618;29;20217;-67
2021/03/27 11:52:49;;;;;;;12.73;3.05;;;8.70;99.90;;;;;;4931287;29;20219;-69
2021/03/27 11:55:23;;;;;;;13.55;4.18;;;8.80;99.90;;;;;;4933125;29;20591;-68
2021/03/27 11:57:55;;;;;;;9.07;3.00;;;8.90;99.90;;;;;;4936314;29;20206;-70
2021/03/27 12:00:50;;;;;;;6.28;2.10;;;8.90;99.90;;;;;;4936870;29;20222;-68
2021/03/27 12:03:28;;;;;;;7.90;2.40;;;9.00;99.90;;;;;;4936239;29;20303;-69
2021/03/27 12:06:04;;;;;;;11.35;4.43;;;9.10;99.90;;;;;;4932477;29;20312;-69
2021/03/27 12:08:41;;;;;;;9.27;2.40;;;9.00;99.90;;;;;;4931310;29;20264;-67
2021/03/27 12:11:13;;;;;;;8.27;3.22;;;8.90;99.90;;;;;;4924807;29;20215;-69
2021/03/27 12:13:44;;;;;;;9.95;2.88;;;8.80;99.90;;;;;;4936904;29;20516;-68
2021/03/27 12:16:35;;;;;;;6.90;2.70;;;8.80;99.90;;;;;;4936930;29;20223;-70
2021/03/27 12:19:24;;;;;;;7.70;2.70;;;9.00;99.90;;;;;;4935180;29;20670;-68
2021/03/27 12:22:01;;;;;;;8.32;2.97;;;9.20;99.90;;;;;;4936623;29;20627;-69
2021/03/27 12:24:41;;;;;;;7.55;2.15;;;9.60;99.90;;;;;;4930120;29;20235;-69
2021/03/27 12:27:23;;;;;;;7.20;3.20;;;9.90;99.90;;;;;;4935849;29;20266;-69
2021/03/27 12:29:59;;;;;;;9.95;2.95;;;10.10;99.90;;;;;;4936129;29;20211;-68
2021/03/27 12:32:43;;;;;;;9.15;4.38;;;9.90;99.90;;;;;;4933088;29;20281;-70
2021/03/27 12:35:26;;;;;;;6.80;2.38;;;9.90;99.90;;;;;;4927604;29;20234;-69
2021/03/27 12:38:23;;;;;;;8.80;3.45;;;10.00;99.80;;;;;;4934430;29;20514;-70
2021/03/27 12:41:03;;;;;;;14.65;2.83;;;10.20;99.90;;;;;;4934902;29;20295;-68
2021/03/27 12:43:33;;;;;;;7.53;2.25;;;10.10;99.30;;;;;;4927703;29;20256;-69
2021/03/27 12:46:13;;;;;;;1.65;1.13;;;9.50;98.90;;;;;;4935689;29;20243;-70
2021/03/27 12:49:01;;;;;;;6.38;2.22;;;8.50;98.30;;;;;;4935866;29;20237;-69
2021/03/27 12:51:41;;;;;;;8.25;2.58;;;8.40;98.10;;;;;;4937545;29;20222;-69
2021/03/27 12:54:22;;;;;;;5.55;1.35;;;8.70;98.80;;;;;;4939463;29;20202;-69
2021/03/27 12:57:09;;;;;;;7.10;1.60;;;9.10;98.30;;;;;;4926762;29;20305;-71
2021/03/27 12:59:48;;;;;;;6.43;1.90;;;9.30;98.00;;;;;;4923658;29;20207;-67
2021/03/27 13:02:44;;;;;;;15.90;2.25;;;9.40;98.00;;;;;;4936418;29;20726;-66
2021/03/27 13:05:18;;;;;;;5.28;1.85;;;9.30;98.90;;;;;;4934284;29;20223;-66
2021/03/27 13:07:53;;;;;;;8.15;2.53;;;9.00;99.90;;;;;;4932887;29;20221;-68
2021/03/27 13:10:47;;;;;;;6.68;2.60;;;8.90;99.90;;;;;;4927413;29;20270;-70
2021/03/27 13:13:43;;;;;;;4.35;1.60;;;8.70;99.90;;;;;;4924139;29;20671;-70
2021/03/27 13:16:19;;;;;;;5.93;2.22;;;8.70;99.90;;;;;;4894802;29;20224;-67
2021/03/27 13:18:58;;;;;;;8.13;2.28;;;8.70;99.60;;;;;;4925773;29;20330;-69
2021/03/27 13:21:51;;;;;;;6.47;1.73;;;8.80;98.30;;;;;;4921602;29;20207;-68
2021/03/27 13:24:21;;;;;;;2.85;1.45;;;9.00;97.60;;;;;;4930675;29;20234;-68
2021/03/27 13:26:52;;;;;;;3.88;1.42;;;9.00;95.30;;;;;;4931890;29;20311;-71
2021/03/27 13:29:35;;;;;;;2.92;1.75;;;9.10;94.80;;;;;;4929644;29;20218;-70
2021/03/27 13:32:17;;;;;;;3.38;1.48;;;9.20;93.40;;;;;;4926547;29;20216;-68
2021/03/27 13:34:47;;;;;;;3.83;1.30;;;9.20;93.50;;;;;;4927483;29;20207;-71
2021/03/27 13:37:21;;;;;;;5.15;1.95;;;9.20;94.10;;;;;;4934439;29;20204;-67
2021/03/27 13:39:54;;;;;;;3.95;1.77;;;8.80;94.90;;;;;;4928632;29;20277;-68
2021/03/27 13:42:44;;;;;;;2.92;1.63;;;8.50;95.90;;;;;;4929397;29;20206;-68
2021/03/27 13:45:33;;;;;;;2.28;1.70;;;8.30;97.00;;;;;;4930932;29;20243;-68
2021/03/27 13:48:13;;;;;;;4.35;1.70;;;8.50;97.70;;;;;;4927915;29;20212;-69
2021/03/27 13:51:01;;;;;;;4.38;1.35;;;8.70;98.10;;;;;;4920282;29;20613;-69
2021/03/27 13:53:45;;;;;;;4.75;1.55;;;9.00;97.70;;;;;;4918383;29;20262;-69
2021/03/27 13:56:35;;;;;;;6.55;2.10;;;9.10;97.90;;;;;;4931862;29;20349;-71
2021/03/27 13:59:23;;;;;;;8.13;2.28;;;9.30;98.80;;;;;;4934573;29;20208;-68
2021/03/27 14:02:28;;;;;;;8.95;1.83;;;9.50;98.70;;;;;;4932876;29;20212;-69
2021/03/27 14:05:06;;;;;;;6.75;2.20;;;9.10;98.90;;;;;;4934204;29;20222;-68
2021/03/27 14:07:41;;;;;;;4.07;2.20;;;8.90;99.90;;;;;;4928677;29;20215;-69
2021/03/27 14:10:15;;;;;;;4.53;2.42;;;8.70;99.90;;;;;;4933033;29;20210;-70
2021/03/27 14:12:49;;;;;;;9.70;1.92;;;8.30;99.90;;;;;;4935125;29;20575;-70
2021/03/27 14:15:29;;;;;;;8.82;2.05;;;7.80;99.90;;;;;;4935044;29;20258;-69